Lexington, NE

7:55 AM CDT on April 30, 2017 (GMT -0500)
Kelly | | Change Station

Elev 2411 ft 40.79 °N, 99.78 °W | Updated 20 minutes ago

Light Snow
Light Snow
34 °F
Feels Like 22 °F
N
21
Wind Variable Wind from North
Gusts 25 mph

Today
High -- | Low -- °F
--% Chance of Precip.
Yesterday
High -- | Low -- °F
Precip. -- in
Pressure 29.76 in
Visibility 5.0 miles
Clouds Mostly Cloudy 600 ft
Overcast 1600 ft
Windchill 22 °F
Dew Point 32 °F
Humidity 93%
Rainfall 0.31 in
Snow Depth Not available.
6:38 AM 8:34 PM
Waxing Crescent, 22% visible
METAR KLXN 301235Z AUTO 01018G22KT 5SM -SN BKN006 OVC016 01/00 A2976 RMK AO2 P0004 T00110001
Pressure 29.76 in
Visibility 5.0 miles
Clouds Mostly Cloudy 600 ft
Overcast 1600 ft
Windchill 22 °F
Dew Point 32 °F
Humidity 93%
Rainfall 0.31 in
Snow Depth Not available.
6:38 AM 8:34 PM
Waxing Crescent, 22% visible
METAR KLXN 301235Z AUTO 01018G22KT 5SM -SN BKN006 OVC016 01/00 A2976 RMK AO2 P0004 T00110001

Get Severe Weather Alerts

Thanks for signing up!

Be on the lookout for a verification email in your inbox.

You'll start receiving the daily forecast at 8 AM.

×

10-Day Weather Forecast

Almanac

Astronomy

Apr. 30, 2017 Rise Set
Actual Time
Civil Twilight
Nautical Twilight
Astronomical Twilight
Moon
Length of Visible Light
Length of Day
Tomorrow will be .
, % of the Moon is Illuminated

Today's Extremes

State Highs State Lows

Community

WunderPhotos

WunderBlog® & News

Nearby

Air Quality

  Air Quality AQ Index Pollutant
Not available.

Snow Depth

Station Depth Elevation

Earthquake Activity

City Distance Mag. Time & Date
Minimum magnitude displayed is 2.5.

Coastal Water Temperatures

Place Temperature

Stations

Nearby Weather Stations

Station Location Temp. Windchill Dew Point Humidity Wind Precip. Elev Updated Type
                   

Watches & Warnings

There are currently no watches in effect.